createdAt,value
2022-08-27T00:00:15.346Z,97145.34
2022-08-27T00:02:43.030Z,97154.81
2022-08-27T00:05:14.815Z,97156.63
2022-08-27T00:07:42.729Z,97157.88
2022-08-27T00:10:14.959Z,97171.78
2022-08-27T00:12:41.944Z,97175.91
2022-08-27T00:15:09.535Z,97178.75
2022-08-27T00:17:38.720Z,97175.44
2022-08-27T00:20:06.969Z,97174.66
2022-08-27T00:22:33.882Z,97178.22
2022-08-27T00:25:00.776Z,97183.94
2022-08-27T00:27:27.435Z,97190.78
2022-08-27T00:29:54.290Z,97189.38
2022-08-27T00:32:21.121Z,97184.84
2022-08-27T00:34:47.772Z,97189.56
2022-08-27T00:37:14.989Z,97182.31
2022-08-27T00:39:41.779Z,97183.69
2022-08-27T00:42:08.622Z,97187.22
2022-08-27T00:44:35.505Z,97194.63
2022-08-27T00:47:11.099Z,97190.19
2022-08-27T00:50:12.816Z,97190.00
2022-08-27T00:52:56.426Z,97190.00
2022-08-27T00:55:28.697Z,97191.34
2022-08-27T00:58:04.907Z,97200.44
2022-08-27T01:00:32.594Z,97208.13
2022-08-27T01:02:59.398Z,97199.53
2022-08-27T01:05:28.018Z,97200.34
2022-08-27T01:07:59.381Z,97207.50
2022-08-27T01:10:28.547Z,97204.00
2022-08-27T01:12:56.567Z,97205.53
2022-08-27T01:15:26.446Z,97209.28
2022-08-27T01:17:54.485Z,97208.03
2022-08-27T01:20:30.487Z,97204.00
2022-08-27T01:23:25.222Z,97207.50
2022-08-27T01:25:52.535Z,97212.59
2022-08-27T01:28:23.568Z,97215.34
2022-08-27T01:30:53.428Z,97215.34
2022-08-27T01:33:21.445Z,97225.00
2022-08-27T01:35:50.802Z,97237.22
2022-08-27T01:38:30.903Z,97239.91
2022-08-27T01:41:00.293Z,97240.72
2022-08-27T01:43:29.233Z,97236.69
2022-08-27T01:45:55.873Z,97233.56
2022-08-27T01:48:22.784Z,97234.97
2022-08-27T01:50:50.263Z,97230.91
2022-08-27T01:53:25.839Z,97239.09
2022-08-27T01:55:54.399Z,97237.69
2022-08-27T01:58:25.151Z,97239.81
2022-08-27T02:00:56.641Z,97234.91
2022-08-27T02:03:24.642Z,97223.91
2022-08-27T02:05:51.812Z,97223.13
2022-08-27T02:08:19.442Z,97227.31
2022-08-27T02:10:48.166Z,97231.50
2022-08-27T02:13:15.059Z,97230.09
2022-08-27T02:15:42.944Z,97225.78
2022-08-27T02:18:10.937Z,97226.59
2022-08-27T02:20:37.869Z,97234.19
2022-08-27T02:23:04.957Z,97227.94
2022-08-27T02:25:31.677Z,97218.38
2022-08-27T02:28:00.339Z,97219.38
2022-08-27T02:30:28.766Z,97225.53
2022-08-27T02:32:55.464Z,97219.13
2022-08-27T02:35:24.175Z,97217.84
2022-08-27T02:37:52.004Z,97220.72
2022-08-27T02:40:21.953Z,97218.38
2022-08-27T02:42:49.234Z,97228.91
2022-08-27T02:45:16.740Z,97230.19
2022-08-27T02:47:44.022Z,97221.06
2022-08-27T02:50:11.213Z,97219.13
2022-08-27T02:52:38.096Z,97221.50
2022-08-27T02:55:05.952Z,97224.44
2022-08-27T02:57:36.353Z,97218.66
2022-08-27T03:00:07.299Z,97221.97
2022-08-27T03:02:34.067Z,97221.06
2022-08-27T03:05:01.055Z,97219.63
2022-08-27T03:07:27.707Z,97227.03
2022-08-27T03:09:54.325Z,97235.16
2022-08-27T03:12:22.881Z,97237.19
2022-08-27T03:14:51.948Z,97237.38
2022-08-27T03:17:37.306Z,97234.63
2022-08-27T03:20:05.993Z,97228.91
2022-08-27T03:22:32.830Z,97235.16
2022-08-27T03:25:02.441Z,97231.03
2022-08-27T03:27:29.374Z,97231.03
2022-08-27T03:29:57.127Z,97230.84
2022-08-27T03:32:26.262Z,97232.81
2022-08-27T03:34:53.099Z,97228.44
2022-08-27T03:37:19.700Z,97227.63
2022-08-27T03:39:46.559Z,97231.63
2022-08-27T03:42:13.315Z,97235.66
2022-08-27T03:44:40.167Z,97233.50
2022-08-27T03:47:07.094Z,97231.53
2022-08-27T03:49:33.860Z,97222.78
2022-08-27T03:52:00.694Z,97224.84
2022-08-27T03:54:27.442Z,97224.06
2022-08-27T03:56:54.145Z,97230.38
2022-08-27T03:59:20.980Z,97233.34
2022-08-27T04:01:47.698Z,97232.63
2022-08-27T04:04:14.705Z,97231.38
2022-08-27T04:06:41.699Z,97231.28
2022-08-27T04:09:08.378Z,97234.03
2022-08-27T04:11:35.569Z,97228.31
2022-08-27T04:14:14.524Z,97232.53
2022-08-27T04:16:52.462Z,97231.09
2022-08-27T04:19:20.028Z,97244.31
2022-08-27T04:21:48.817Z,97243.50
2022-08-27T04:24:15.806Z,97234.19
2022-08-27T04:26:45.658Z,97240.97
2022-08-27T04:29:12.518Z,97241.72
2022-08-27T04:31:39.314Z,97238.41
2022-08-27T04:34:07.723Z,97240.13
2022-08-27T04:36:34.346Z,97250.63
2022-08-27T04:39:01.317Z,97250.56
2022-08-27T04:41:29.029Z,97251.19
2022-08-27T04:43:58.719Z,97256.72
2022-08-27T04:46:29.085Z,97255.28
2022-08-27T04:48:57.855Z,97256.81
2022-08-27T04:51:25.076Z,97256.28
2022-08-27T04:53:52.422Z,97262.81
2022-08-27T04:56:22.716Z,97267.63
2022-08-27T04:58:51.374Z,97269.25
2022-08-27T05:01:20.604Z,97265.75
2022-08-27T05:03:47.360Z,97264.41
2022-08-27T05:06:14.443Z,97271.47
2022-08-27T05:08:41.594Z,97269.16
2022-08-27T05:11:13.602Z,97271.47
2022-08-27T05:13:40.842Z,97266.22
2022-08-27T05:16:11.351Z,97272.13
2022-08-27T05:18:42.268Z,97265.16
2022-08-27T05:21:28.662Z,97268.19
2022-08-27T05:23:57.233Z,97261.41
2022-08-27T05:26:24.022Z,97269.13
2022-08-27T05:28:51.137Z,97265.72
2022-08-27T05:31:19.625Z,97262.88
2022-08-27T05:33:47.418Z,97267.34
2022-08-27T05:36:22.823Z,97265.09
2022-08-27T05:38:50.407Z,97267.22
2022-08-27T05:41:25.029Z,97276.53
2022-08-27T05:43:59.253Z,97267.94
2022-08-27T05:46:29.145Z,97280.25
2022-08-27T05:48:58.270Z,97280.34
2022-08-27T05:51:28.405Z,97281.88
2022-08-27T05:53:56.866Z,97284.13
2022-08-27T05:56:25.832Z,97286.59
2022-08-27T05:59:11.360Z,97288.78
2022-08-27T06:01:42.781Z,97291.72
2022-08-27T06:04:10.550Z,97289.59
2022-08-27T06:06:39.402Z,97292.09
2022-08-27T06:09:07.125Z,97293.88
2022-08-27T06:11:33.872Z,97301.47
2022-08-27T06:14:00.880Z,97298.16
2022-08-27T06:16:27.981Z,97299.69
2022-08-27T06:18:56.829Z,97300.66
2022-08-27T06:21:24.768Z,97296.63
2022-08-27T06:23:52.828Z,97310.03
2022-08-27T06:26:21.626Z,97300.53
2022-08-27T06:28:49.658Z,97307.69
2022-08-27T06:31:27.595Z,97305.63
2022-08-27T06:34:02.915Z,97302.91
2022-08-27T06:36:37.548Z,97307.22
2022-08-27T06:39:04.348Z,97308.81
2022-08-27T06:41:31.993Z,97302.75
2022-08-27T06:43:58.589Z,97307.34
2022-08-27T06:46:27.690Z,97308.41
2022-08-27T06:48:56.505Z,97308.28
2022-08-27T06:51:26.345Z,97303.84
2022-08-27T06:53:55.689Z,97310.50
2022-08-27T06:56:22.866Z,97314.25
2022-08-27T06:58:56.072Z,97315.25
2022-08-27T07:01:28.186Z,97316.88
2022-08-27T07:04:00.236Z,97316.38
2022-08-27T07:06:29.325Z,97309.00
2022-08-27T07:08:57.154Z,97312.72
2022-08-27T07:11:25.049Z,97311.59
2022-08-27T07:13:52.572Z,97319.31
2022-08-27T07:16:22.792Z,97320.16
2022-08-27T07:18:53.208Z,97314.84
2022-08-27T07:21:21.245Z,97323.31
2022-08-27T07:23:50.166Z,97318.28
2022-08-27T07:26:17.892Z,97321.53
2022-08-27T07:28:46.563Z,97327.56
2022-08-27T07:31:17.111Z,97325.16
2022-08-27T07:33:50.749Z,97317.38
2022-08-27T07:36:21.625Z,97310.81
2022-08-27T07:39:00.727Z,97313.75
2022-08-27T07:41:31.148Z,97312.31
2022-08-27T07:44:20.028Z,97318.75
2022-08-27T07:46:48.724Z,97315.81
2022-08-27T07:49:20.250Z,97315.19
2022-08-27T07:51:47.207Z,97318.19
2022-08-27T07:54:14.816Z,97312.22
2022-08-27T07:56:41.813Z,97320.94
2022-08-27T07:59:09.009Z,97313.03
2022-08-27T08:01:36.088Z,97318.38
2022-08-27T08:04:03.098Z,97316.63
2022-08-27T08:06:30.009Z,97317.03
2022-08-27T08:08:56.720Z,97313.91
2022-08-27T08:11:23.532Z,97313.09
2022-08-27T08:13:50.381Z,97319.53
2022-08-27T08:16:17.070Z,97316.31
2022-08-27T08:18:43.979Z,97321.91
2022-08-27T08:21:13.077Z,97320.38
2022-08-27T08:23:40.576Z,97314.63
2022-08-27T08:26:09.115Z,97324.00
2022-08-27T08:28:36.626Z,97322.72
2022-08-27T08:31:03.565Z,97326.34
2022-08-27T08:33:31.588Z,97331.00
2022-08-27T08:36:10.766Z,97327.06
2022-08-27T08:38:38.194Z,97332.81
2022-08-27T08:41:07.208Z,97331.34
2022-08-27T08:43:39.342Z,97338.41
2022-08-27T08:46:09.958Z,97343.66
2022-08-27T08:48:41.377Z,97337.50
2022-08-27T08:51:25.576Z,97333.53
2022-08-27T08:53:58.453Z,97336.81
2022-08-27T08:56:35.246Z,97344.38
2022-08-27T08:59:19.074Z,97342.13
2022-08-27T09:01:46.001Z,97336.94
2022-08-27T09:04:13.243Z,97338.38
2022-08-27T09:07:28.385Z,97329.44
2022-08-27T09:10:21.395Z,97329.22
2022-08-27T09:12:48.496Z,97330.56
2022-08-27T09:15:25.239Z,97333.13
2022-08-27T09:17:51.934Z,97336.56
2022-08-27T09:20:25.675Z,97335.69
2022-08-27T09:23:22.922Z,97341.66
2022-08-27T09:25:49.648Z,97338.53
2022-08-27T09:28:42.519Z,97336.19
2022-08-27T09:31:20.586Z,97334.94
2022-08-27T09:33:56.432Z,97331.06
2022-08-27T09:36:24.116Z,97332.19
2022-08-27T09:39:04.234Z,97331.38
2022-08-27T09:41:36.570Z,97325.91
2022-08-27T09:44:14.813Z,97327.91
2022-08-27T09:46:52.245Z,97328.97
2022-08-27T09:49:19.996Z,97324.81
2022-08-27T09:51:48.501Z,97324.75
2022-08-27T09:54:46.802Z,97319.81
2022-08-27T09:57:28.797Z,97316.56
2022-08-27T09:59:57.759Z,97317.03
2022-08-27T10:02:26.933Z,97316.06
2022-08-27T10:04:58.734Z,97313.38
2022-08-27T10:07:38.593Z,97319.78
2022-08-27T10:10:17.980Z,97313.25
2022-08-27T10:13:10.147Z,97310.63
2022-08-27T10:16:20.545Z,97312.50
2022-08-27T10:18:56.494Z,97308.56
2022-08-27T10:21:28.488Z,97305.41
2022-08-27T10:24:33.400Z,97302.31
2022-08-27T10:27:49.829Z,97297.59
2022-08-27T10:30:25.005Z,97303.44
2022-08-27T10:33:23.648Z,97308.75
2022-08-27T10:36:16.789Z,97303.25
2022-08-27T10:39:06.162Z,97298.91
2022-08-27T10:41:39.739Z,97303.88
2022-08-27T10:44:43.253Z,97290.84
2022-08-27T10:47:31.562Z,97290.66
2022-08-27T10:50:27.090Z,97290.38
2022-08-27T10:53:10.691Z,97282.06
2022-08-27T10:55:51.401Z,97289.50
2022-08-27T10:58:48.415Z,97285.94
2022-08-27T11:01:59.919Z,97285.59
2022-08-27T11:04:32.730Z,97286.88
2022-08-27T11:07:05.428Z,97282.75
2022-08-27T11:10:25.360Z,97288.44
2022-08-27T11:12:57.916Z,97281.09
2022-08-27T11:15:30.115Z,97275.84
2022-08-27T11:18:01.713Z,97279.81
2022-08-27T11:20:53.696Z,97270.97
2022-08-27T11:23:27.259Z,97280.03
2022-08-27T11:26:01.927Z,97265.06
2022-08-27T11:28:41.728Z,97264.81
2022-08-27T11:31:50.462Z,97265.97
2022-08-27T11:34:33.939Z,97261.53
2022-08-27T11:37:26.352Z,97259.69
2022-08-27T11:40:04.896Z,97262.13
2022-08-27T11:43:04.069Z,97252.59
2022-08-27T11:45:40.030Z,97259.47
2022-08-27T11:48:43.415Z,97257.50
2022-08-27T11:51:28.681Z,97261.63
2022-08-27T11:54:01.865Z,97256.41
2022-08-27T11:56:42.025Z,97261.69
2022-08-27T11:59:43.621Z,97259.63
2022-08-27T12:02:20.679Z,97258.19
2022-08-27T12:04:49.562Z,97264.47
2022-08-27T12:07:30.792Z,97258.59
2022-08-27T12:10:27.508Z,97261.31
2022-08-27T12:13:02.829Z,97263.34
2022-08-27T12:16:16.364Z,97262.00
2022-08-27T12:18:57.651Z,97261.22
2022-08-27T12:21:41.814Z,97258.19
2022-08-27T12:24:49.320Z,97263.31
2022-08-27T12:27:34.388Z,97266.53
2022-08-27T12:30:37.842Z,97261.91
2022-08-27T12:33:13.782Z,97261.53
2022-08-27T12:35:53.075Z,97255.31
2022-08-27T12:38:50.388Z,97258.19
2022-08-27T12:41:50.770Z,97252.63
2022-08-27T12:44:27.578Z,97249.19
2022-08-27T12:47:04.327Z,97250.75
2022-08-27T12:49:39.444Z,97240.94
2022-08-27T12:52:44.389Z,97244.31
2022-08-27T12:55:40.393Z,97238.78
2022-08-27T12:58:38.076Z,97234.00
2022-08-27T13:01:33.957Z,97229.97
2022-08-27T13:04:01.546Z,97232.97
2022-08-27T13:06:34.826Z,97231.78
2022-08-27T13:09:04.736Z,97228.53
2022-08-27T13:11:34.670Z,97227.78
2022-08-27T13:14:13.491Z,97225.91
2022-08-27T13:16:50.360Z,97228.09
2022-08-27T13:19:31.418Z,97223.66
2022-08-27T13:21:59.628Z,97224.03
2022-08-27T13:24:44.485Z,97223.19
2022-08-27T13:27:11.462Z,97211.78
2022-08-27T13:29:40.115Z,97210.09
2022-08-27T13:32:07.497Z,97211.16
2022-08-27T13:34:38.680Z,97205.28
2022-08-27T13:37:21.013Z,97201.94
2022-08-27T13:39:51.846Z,97200.34
2022-08-27T13:42:20.279Z,97194.00
2022-08-27T13:44:48.243Z,97203.78
2022-08-27T13:47:22.114Z,97186.25
2022-08-27T13:49:48.861Z,97193.50
2022-08-27T13:52:27.474Z,97184.53
2022-08-27T13:55:05.861Z,97186.03
2022-08-27T13:57:50.626Z,97193.09
2022-08-27T14:00:23.829Z,97187.72
2022-08-27T14:02:55.815Z,97190.81
2022-08-27T14:05:34.065Z,97195.94
2022-08-27T14:08:12.726Z,97198.22
2022-08-27T14:10:44.326Z,97204.50
2022-08-27T14:13:23.606Z,97206.59
2022-08-27T14:15:59.019Z,97199.31
2022-08-27T14:18:55.102Z,97190.63
2022-08-27T14:21:17.503Z,97185.81
2022-08-27T14:23:44.426Z,97186.69
2022-08-27T14:26:14.834Z,97177.59
2022-08-27T14:28:42.621Z,97167.03
2022-08-27T14:31:09.308Z,97172.69
2022-08-27T14:33:36.026Z,97173.41
2022-08-27T14:36:03.336Z,97182.34
2022-08-27T14:38:31.985Z,97182.75
2022-08-27T14:40:59.990Z,97183.97
2022-08-27T14:43:27.229Z,97182.41
2022-08-27T14:45:55.436Z,97179.44
2022-08-27T14:48:28.846Z,97174.97
2022-08-27T14:50:56.785Z,97180.56
2022-08-27T14:53:23.752Z,97175.81
2022-08-27T14:55:52.112Z,97178.63
2022-08-27T14:58:19.357Z,97172.16
2022-08-27T15:00:46.736Z,97174.31
2022-08-27T15:03:14.043Z,97181.16
2022-08-27T15:05:40.746Z,97181.16
2022-08-27T15:08:13.340Z,97181.81
2022-08-27T15:10:40.448Z,97187.41
2022-08-27T15:13:07.338Z,97179.78
2022-08-27T15:15:34.201Z,97190.34
2022-08-27T15:18:00.863Z,97176.22
2022-08-27T15:20:27.755Z,97180.19
2022-08-27T15:22:54.339Z,97173.19
2022-08-27T15:25:21.657Z,97172.69
2022-08-27T15:27:49.315Z,97170.44
2022-08-27T15:30:18.799Z,97175.16
2022-08-27T15:32:47.932Z,97172.25
2022-08-27T15:35:18.388Z,97172.06
2022-08-27T15:37:45.798Z,97176.88
2022-08-27T15:40:15.307Z,97175.47
2022-08-27T15:42:42.481Z,97176.81
2022-08-27T15:45:11.395Z,97168.31
2022-08-27T15:47:38.054Z,97169.75
2022-08-27T15:50:06.277Z,97162.66
2022-08-27T15:52:40.475Z,97157.03
2022-08-27T15:55:14.900Z,97157.72
2022-08-27T15:57:41.545Z,97165.25
2022-08-27T16:00:09.234Z,97155.38
2022-08-27T16:02:36.242Z,97156.72
2022-08-27T16:05:02.963Z,97146.16
2022-08-27T16:07:30.335Z,97139.06
2022-08-27T16:09:57.042Z,97134.94
2022-08-27T16:12:27.073Z,97132.13
2022-08-27T16:14:55.299Z,97137.63
2022-08-27T16:17:22.869Z,97143.09
2022-08-27T16:19:49.613Z,97147.25
2022-08-27T16:22:16.353Z,97146.50
2022-08-27T16:24:45.009Z,97143.00
2022-08-27T16:27:11.950Z,97147.88
2022-08-27T16:29:38.593Z,97147.78
2022-08-27T16:32:07.618Z,97147.75
2022-08-27T16:34:35.130Z,97151.19
2022-08-27T16:37:01.785Z,97149.22
2022-08-27T16:39:33.699Z,97155.53
2022-08-27T16:42:02.400Z,97168.03
2022-08-27T16:44:29.677Z,97161.16
2022-08-27T16:46:56.298Z,97166.66
2022-08-27T16:49:41.769Z,97174.31
2022-08-27T16:52:09.142Z,97172.16
2022-08-27T16:54:35.949Z,97165.72
2022-08-27T16:57:02.828Z,97169.22
2022-08-27T16:59:29.514Z,97164.97
2022-08-27T17:01:57.001Z,97169.81
2022-08-27T17:04:30.452Z,97166.91
2022-08-27T17:07:02.209Z,97171.75
2022-08-27T17:09:30.351Z,97183.34
2022-08-27T17:11:58.369Z,97178.31
2022-08-27T17:14:25.108Z,97188.56
2022-08-27T17:16:54.115Z,97189.06
2022-08-27T17:19:26.183Z,97195.25
2022-08-27T17:21:54.940Z,97200.72
2022-08-27T17:24:22.051Z,97202.81
2022-08-27T17:26:48.863Z,97207.63
2022-08-27T17:29:15.516Z,97204.13
2022-08-27T17:31:43.489Z,97203.44
2022-08-27T17:34:20.537Z,97207.59
2022-08-27T17:36:47.365Z,97201.25
2022-08-27T17:39:14.713Z,97208.91
2022-08-27T17:41:44.294Z,97210.94
2022-08-27T17:44:32.642Z,97208.09
2022-08-27T17:47:02.982Z,97212.81
2022-08-27T17:49:32.419Z,97214.81
2022-08-27T17:52:02.427Z,97213.31
2022-08-27T17:54:56.323Z,97217.31
2022-08-27T17:57:26.552Z,97221.28
2022-08-27T17:59:54.311Z,97224.56
2022-08-27T18:02:29.130Z,97227.22
2022-08-27T18:04:56.198Z,97230.56
2022-08-27T18:07:24.367Z,97233.16
2022-08-27T18:09:51.395Z,97226.06
2022-08-27T18:12:22.720Z,97231.53
2022-08-27T18:14:54.555Z,97218.78
2022-08-27T18:17:21.202Z,97225.03
2022-08-27T18:19:50.717Z,97223.53
2022-08-27T18:22:18.320Z,97226.22
2022-08-27T18:24:44.984Z,97225.38
2022-08-27T18:27:11.648Z,97228.13
2022-08-27T18:29:38.492Z,97229.41
2022-08-27T18:32:05.372Z,97234.91
2022-08-27T18:34:32.549Z,97245.88
2022-08-27T18:36:59.393Z,97243.75
2022-08-27T18:39:26.193Z,97252.69
2022-08-27T18:41:53.281Z,97254.84
2022-08-27T18:44:20.012Z,97262.53
2022-08-27T18:46:46.907Z,97270.03
2022-08-27T18:49:13.805Z,97264.47
2022-08-27T18:51:43.038Z,97270.69
2022-08-27T18:54:09.768Z,97272.75
2022-08-27T18:56:36.416Z,97262.34
2022-08-27T18:59:04.300Z,97264.41
2022-08-27T19:01:31.876Z,97265.75
2022-08-27T19:03:58.844Z,97275.47
2022-08-27T19:06:25.656Z,97268.47
2022-08-27T19:08:52.330Z,97279.59
2022-08-27T19:11:19.116Z,97281.63
2022-08-27T19:13:46.249Z,97285.81
2022-08-27T19:16:39.167Z,97280.38
2022-08-27T19:19:06.134Z,97295.34
2022-08-27T19:21:33.479Z,97297.81
2022-08-27T19:24:00.084Z,97301.28
2022-08-27T19:26:27.220Z,97303.25
2022-08-27T19:28:53.920Z,97307.13
2022-08-27T19:31:20.636Z,97303.56
2022-08-27T19:33:47.379Z,97315.63
2022-08-27T19:36:18.590Z,97319.16
2022-08-27T19:38:45.994Z,97309.56
2022-08-27T19:41:13.040Z,97313.09
2022-08-27T19:43:43.824Z,97314.81
2022-08-27T19:46:13.697Z,97321.25
2022-08-27T19:48:40.395Z,97317.72
2022-08-27T19:51:07.054Z,97322.88
2022-08-27T19:53:34.245Z,97332.16
2022-08-27T19:56:01.284Z,97344.22
2022-08-27T19:58:28.122Z,97344.78
2022-08-27T20:00:55.029Z,97342.38
2022-08-27T20:03:21.981Z,97342.22
2022-08-27T20:05:51.609Z,97336.75
2022-08-27T20:08:19.254Z,97331.09
2022-08-27T20:10:46.226Z,97340.00
2022-08-27T20:13:13.199Z,97328.97
2022-08-27T20:15:40.617Z,97321.47
2022-08-27T20:18:07.517Z,97315.59
2022-08-27T20:20:35.673Z,97312.88
2022-08-27T20:23:05.074Z,97325.00
2022-08-27T20:25:33.468Z,97332.69
2022-08-27T20:28:12.227Z,97327.00
2022-08-27T20:30:48.684Z,97329.13
2022-08-27T20:33:16.701Z,97328.41
2022-08-27T20:35:44.733Z,97331.13
2022-08-27T20:38:11.625Z,97330.06
2022-08-27T20:40:38.419Z,97327.66
2022-08-27T20:43:05.139Z,97325.69
2022-08-27T20:45:32.313Z,97321.22
2022-08-27T20:47:59.059Z,97324.59
2022-08-27T20:50:25.781Z,97323.28
2022-08-27T20:52:52.772Z,97312.81
2022-08-27T20:55:19.816Z,97313.19
2022-08-27T20:58:11.761Z,97311.75
2022-08-27T21:00:41.970Z,97309.59
2022-08-27T21:03:10.549Z,97324.28
2022-08-27T21:05:37.810Z,97326.97
2022-08-27T21:08:06.262Z,97319.44
2022-08-27T21:10:33.713Z,97321.50
2022-08-27T21:13:04.549Z,97315.34
2022-08-27T21:15:32.072Z,97315.88
2022-08-27T21:17:58.754Z,97318.47
2022-08-27T21:20:25.570Z,97314.28
2022-08-27T21:22:52.226Z,97314.28
2022-08-27T21:25:19.029Z,97309.91
2022-08-27T21:27:45.602Z,97308.03
2022-08-27T21:30:13.024Z,97306.97
2022-08-27T21:32:39.766Z,97309.66
2022-08-27T21:35:06.985Z,97307.34
2022-08-27T21:37:34.441Z,97306.63
2022-08-27T21:40:01.293Z,97299.03
2022-08-27T21:42:27.960Z,97300.63
2022-08-27T21:44:54.614Z,97296.44
2022-08-27T21:47:21.252Z,97304.75
2022-08-27T21:49:47.864Z,97305.91
2022-08-27T21:52:14.761Z,97300.38
2022-08-27T21:54:42.240Z,97296.16
2022-08-27T21:57:14.015Z,97298.06
2022-08-27T21:59:44.497Z,97311.81
2022-08-27T22:02:35.734Z,97301.53
2022-08-27T22:04:58.323Z,97313.16
2022-08-27T22:07:25.405Z,97312.28
2022-08-27T22:09:51.999Z,97308.06
2022-08-27T22:12:18.817Z,97305.22
2022-08-27T22:14:45.483Z,97306.75
2022-08-27T22:17:15.698Z,97308.69
2022-08-27T22:19:42.760Z,97303.34
2022-08-27T22:22:09.549Z,97301.28
2022-08-27T22:24:36.365Z,97290.28
2022-08-27T22:27:03.019Z,97290.91
2022-08-27T22:29:30.712Z,97295.91
2022-08-27T22:31:57.681Z,97301.28
2022-08-27T22:34:24.366Z,97285.91
2022-08-27T22:36:51.192Z,97296.09
2022-08-27T22:39:17.840Z,97302.91
2022-08-27T22:41:47.598Z,97292.44
2022-08-27T22:44:15.674Z,97291.75
2022-08-27T22:46:42.346Z,97297.34
2022-08-27T22:49:09.221Z,97304.31
2022-08-27T22:51:35.803Z,97300.28
2022-08-27T22:54:02.410Z,97297.44
2022-08-27T22:56:29.453Z,97301.31
2022-08-27T22:58:56.202Z,97296.47
2022-08-27T23:01:22.885Z,97297.53
2022-08-27T23:03:49.692Z,97290.06
2022-08-27T23:06:16.304Z,97281.91
2022-08-27T23:08:43.065Z,97288.00
2022-08-27T23:11:09.716Z,97282.34
2022-08-27T23:13:36.498Z,97287.00
2022-08-27T23:16:03.591Z,97280.03
2022-08-27T23:18:30.539Z,97285.66
2022-08-27T23:20:57.178Z,97287.25
2022-08-27T23:23:26.733Z,97293.66
2022-08-27T23:26:16.581Z,97287.44
2022-08-27T23:28:44.232Z,97286.59
2022-08-27T23:31:11.774Z,97280.25
2022-08-27T23:33:39.085Z,97286.44
2022-08-27T23:36:06.699Z,97274.66
2022-08-27T23:38:33.855Z,97288.66
2022-08-27T23:41:00.753Z,97283.94
2022-08-27T23:43:28.181Z,97286.72
2022-08-27T23:45:54.782Z,97287.50
2022-08-27T23:48:21.620Z,97292.31
2022-08-27T23:50:48.288Z,97300.03
2022-08-27T23:53:14.966Z,97299.22
2022-08-27T23:55:41.837Z,97318.41
2022-08-27T23:58:08.959Z,97318.41
